Time,TemperatureF,DewpointF,PressureIn,WindDirection,WindDirectionDegrees,WindSpeedMPH,WindSpeedGustMPH,Humidity,HourlyPrecipIn,Conditions,Clouds,dailyrainin,SoftwareType,DateUTC
2013-05-30 00:02:00,50.0,43.0,-100.00,WSW,251,4.0,6.0,78,0.00,,,-99.99,,2013-05-30 08:02:00,
2013-05-30 00:11:00,50.0,43.0,-100.00,WSW,251,4.0,6.0,78,0.00,,,-99.99,,2013-05-30 08:11:00,
2013-05-30 00:21:00,50.0,43.0,-100.00,WSW,251,4.0,6.0,78,0.00,,,-99.99,,2013-05-30 08:21:00,
2013-05-30 00:30:00,49.0,43.0,-100.00,WSW,242,2.0,4.0,80,0.00,,,-99.99,,2013-05-30 08:30:00,
2013-05-30 00:53:00,49.0,43.0,-100.00,WSW,242,2.0,4.0,80,0.00,,,-99.99,,2013-05-30 08:53:00,
2013-05-30 01:01:00,49.0,43.0,-100.00,WSW,242,2.0,4.0,80,0.00,,,-99.99,,2013-05-30 09:01:00,
2013-05-30 01:11:00,49.0,43.0,-100.00,WSW,242,2.0,4.0,80,0.00,,,-99.99,,2013-05-30 09:11:00,
2013-05-30 01:21:00,49.0,43.0,-100.00,WSW,242,2.0,4.0,80,0.00,,,-99.99,,2013-05-30 09:21:00,
2013-05-30 01:30:00,47.0,44.0,-100.00,ENE,62,4.0,6.0,87,0.00,,,-99.99,,2013-05-30 09:30:00,
2013-05-30 01:53:00,47.0,44.0,-100.00,ENE,62,4.0,6.0,87,0.00,,,-99.99,,2013-05-30 09:53:00,
2013-05-30 02:02:00,47.0,44.0,-100.00,ENE,62,4.0,6.0,87,0.00,,,-99.99,,2013-05-30 10:02:00,
2013-05-30 02:12:00,47.0,44.0,-100.00,ENE,62,4.0,6.0,87,0.00,,,-99.99,,2013-05-30 10:12:00,
2013-05-30 02:22:00,47.0,44.0,-100.00,ENE,62,4.0,6.0,87,0.00,,,-99.99,,2013-05-30 10:22:00,
2013-05-30 02:30:00,47.0,44.0,-100.00,NE,56,3.0,4.0,88,0.00,,,-99.99,,2013-05-30 10:30:00,
2013-05-30 02:52:00,47.0,44.0,-100.00,NE,56,3.0,4.0,88,0.00,,,-99.99,,2013-05-30 10:52:00,
2013-05-30 03:03:00,47.0,44.0,-100.00,NE,56,3.0,4.0,88,0.00,,,-99.99,,2013-05-30 11:03:00,
2013-05-30 03:12:00,47.0,44.0,-100.00,NE,56,3.0,4.0,88,0.00,,,-99.99,,2013-05-30 11:12:00,
2013-05-30 03:21:00,47.0,44.0,-100.00,NE,56,3.0,4.0,88,0.00,,,-99.99,,2013-05-30 11:21:00,
2013-05-30 03:30:00,48.0,44.0,-100.00,WNW,294,3.0,5.0,86,0.00,,,-99.99,,2013-05-30 11:30:00,
2013-05-30 03:52:00,48.0,44.0,-100.00,WNW,294,3.0,5.0,86,0.00,,,-99.99,,2013-05-30 11:52:00,
2013-05-30 04:01:00,48.0,44.0,-100.00,WNW,294,3.0,5.0,86,0.00,,,-99.99,,2013-05-30 12:01:00,
2013-05-30 04:11:00,48.0,44.0,-100.00,WNW,294,3.0,5.0,86,0.00,,,-99.99,,2013-05-30 12:11:00,
2013-05-30 04:22:00,48.0,44.0,-100.00,WNW,294,3.0,5.0,86,0.00,,,-99.99,,2013-05-30 12:22:00,
2013-05-30 04:30:00,47.0,43.0,-100.00,WSW,249,3.0,4.0,89,0.00,,,-99.99,,2013-05-30 12:30:00,
2013-05-30 04:52:00,47.0,43.0,-100.00,WSW,249,3.0,4.0,89,0.00,,,-99.99,,2013-05-30 12:52:00,
2013-05-30 05:01:00,47.0,43.0,-100.00,WSW,249,3.0,4.0,89,0.00,,,-99.99,,2013-05-30 13:01:00,
2013-05-30 05:11:00,47.0,43.0,-100.00,WSW,249,3.0,4.0,89,0.00,,,-99.99,,2013-05-30 13:11:00,
2013-05-30 05:22:00,47.0,43.0,-100.00,WSW,249,3.0,4.0,89,0.00,,,-99.99,,2013-05-30 13:22:00,
2013-05-30 05:30:00,45.0,43.0,-100.00,WSW,238,4.0,7.0,90,0.00,,,-99.99,,2013-05-30 13:30:00,
2013-05-30 05:52:00,45.0,43.0,-100.00,WSW,238,4.0,7.0,90,0.00,,,-99.99,,2013-05-30 13:52:00,
2013-05-30 06:01:00,45.0,43.0,-100.00,WSW,238,4.0,7.0,90,0.00,,,-99.99,,2013-05-30 14:01:00,
2013-05-30 06:11:00,45.0,43.0,-100.00,WSW,238,4.0,7.0,90,0.00,,,-99.99,,2013-05-30 14:11:00,
2013-05-30 06:21:00,45.0,43.0,-100.00,WSW,238,4.0,7.0,90,0.00,,,-99.99,,2013-05-30 14:21:00,
2013-05-30 06:30:00,47.0,43.0,-100.00,SW,229,4.0,7.0,88,0.00,,,-99.99,,2013-05-30 14:30:00,
2013-05-30 06:52:00,47.0,43.0,-100.00,SW,229,4.0,7.0,88,0.00,,,-99.99,,2013-05-30 14:52:00,
2013-05-30 07:01:00,47.0,43.0,-100.00,SW,229,4.0,7.0,88,0.00,,,-99.99,,2013-05-30 15:01:00,
2013-05-30 07:11:00,47.0,43.0,-100.00,SW,229,4.0,7.0,88,0.00,,,-99.99,,2013-05-30 15:11:00,
2013-05-30 07:22:00,47.0,43.0,-100.00,SW,229,4.0,7.0,88,0.00,,,-99.99,,2013-05-30 15:22:00,
2013-05-30 07:30:00,47.0,43.0,-100.00,SW,231,7.0,10.0,85,0.00,,,-99.99,,2013-05-30 15:30:00,
2013-05-30 07:53:00,47.0,43.0,-100.00,SW,231,7.0,10.0,85,0.00,,,-99.99,,2013-05-30 15:53:00,
2013-05-30 08:03:00,47.0,43.0,-100.00,SW,231,7.0,10.0,85,0.00,,,-99.99,,2013-05-30 16:03:00,
2013-05-30 08:12:00,47.0,43.0,-100.00,SW,231,7.0,10.0,85,0.00,,,-99.99,,2013-05-30 16:12:00,
2013-05-30 08:22:00,47.0,43.0,-100.00,SW,231,7.0,10.0,85,0.00,,,-99.99,,2013-05-30 16:22:00,
2013-05-30 08:30:00,48.0,43.0,-100.00,WSW,252,7.0,11.0,83,0.00,,,-99.99,,2013-05-30 16:30:00,
2013-05-30 08:53:00,48.0,43.0,-100.00,WSW,252,7.0,11.0,83,0.00,,,-99.99,,2013-05-30 16:53:00,
2013-05-30 09:02:00,48.0,43.0,-100.00,WSW,252,7.0,11.0,83,0.00,,,-99.99,,2013-05-30 17:02:00,
2013-05-30 09:11:00,48.0,43.0,-100.00,WSW,252,7.0,11.0,83,0.00,,,-99.99,,2013-05-30 17:11:00,
2013-05-30 09:22:00,48.0,43.0,-100.00,WSW,252,7.0,11.0,83,0.00,,,-99.99,,2013-05-30 17:22:00,
2013-05-30 09:30:00,47.0,42.0,-100.00,WSW,252,10.0,13.0,85,0.00,,,-99.99,,2013-05-30 17:30:00,
2013-05-30 09:52:00,47.0,42.0,-100.00,WSW,252,10.0,13.0,85,0.00,,,-99.99,,2013-05-30 17:52:00,
2013-05-30 10:02:00,47.0,42.0,-100.00,WSW,252,10.0,13.0,85,0.00,,,-99.99,,2013-05-30 18:02:00,
2013-05-30 10:11:00,47.0,42.0,-100.00,WSW,252,10.0,13.0,85,0.00,,,-99.99,,2013-05-30 18:11:00,
2013-05-30 10:21:00,47.0,42.0,-100.00,WSW,252,10.0,13.0,85,0.00,,,-99.99,,2013-05-30 18:21:00,
2013-05-30 10:52:00,47.0,43.0,-100.00,West,259,10.0,15.0,87,0.00,,,-99.99,,2013-05-30 18:52:00,
2013-05-30 11:01:00,47.0,43.0,-100.00,West,259,10.0,15.0,87,0.00,,,-99.99,,2013-05-30 19:01:00,
2013-05-30 11:52:00,44.0,42.0,-100.00,WSW,251,16.0,18.0,92,0.00,,,-99.99,,2013-05-30 19:52:00,
2013-05-30 12:52:00,44.0,42.0,-100.00,WSW,250,17.0,22.0,92,0.00,,,-99.99,,2013-05-30 20:52:00,
2013-05-30 13:53:00,44.0,42.0,-100.00,WSW,253,20.0,25.0,96,0.00,,,-99.99,,2013-05-30 21:53:00,
2013-05-30 15:30:00,44.0,44.0,-100.00,WSW,247,12.0,18.0,98,0.00,,,-99.99,,2013-05-30 23:30:00,
2013-05-30 15:52:00,44.0,44.0,-100.00,WSW,247,12.0,18.0,98,0.00,,,-99.99,,2013-05-30 23:52:00,
2013-05-30 16:01:00,44.0,44.0,-100.00,WSW,247,12.0,18.0,98,0.00,,,-99.99,,2013-05-31 00:01:00,
2013-05-30 16:30:00,44.0,44.0,-100.00,SW,236,11.0,17.0,97,0.00,,,-99.99,,2013-05-31 00:30:00,
2013-05-30 16:52:00,44.0,44.0,-100.00,SW,236,11.0,17.0,97,0.00,,,-99.99,,2013-05-31 00:52:00,
2013-05-30 17:52:00,45.0,44.0,-100.00,WSW,252,13.0,16.0,97,0.00,,,-99.99,,2013-05-31 01:52:00,
2013-05-30 18:30:00,46.0,44.0,-100.00,WSW,246,11.0,15.0,95,0.00,,,-99.99,,2013-05-31 02:30:00,
2013-05-30 18:52:00,46.0,44.0,-100.00,WSW,246,11.0,15.0,95,0.00,,,-99.99,,2013-05-31 02:52:00,
2013-05-30 19:30:00,47.0,44.0,-100.00,SW,232,8.0,11.0,90,0.00,,,-99.99,,2013-05-31 03:30:00,
2013-05-30 19:53:00,47.0,44.0,-100.00,SW,232,8.0,11.0,90,0.00,,,-99.99,,2013-05-31 03:53:00,
2013-05-30 20:02:00,47.0,44.0,-100.00,SW,232,8.0,11.0,90,0.00,,,-99.99,,2013-05-31 04:02:00,
2013-05-30 20:12:00,47.0,44.0,-100.00,SW,232,8.0,11.0,90,0.00,,,-99.99,,2013-05-31 04:12:00,
2013-05-30 20:22:00,47.0,44.0,-100.00,SW,232,8.0,11.0,90,0.00,,,-99.99,,2013-05-31 04:22:00,
2013-05-30 20:30:00,48.0,44.0,-100.00,SW,235,9.0,12.0,88,0.00,,,-99.99,,2013-05-31 04:30:00,
2013-05-30 20:53:00,48.0,44.0,-100.00,SW,235,9.0,12.0,88,0.00,,,-99.99,,2013-05-31 04:53:00,
2013-05-30 21:02:00,48.0,44.0,-100.00,SW,235,9.0,12.0,88,0.00,,,-99.99,,2013-05-31 05:02:00,
2013-05-30 21:12:00,48.0,44.0,-100.00,SW,235,9.0,12.0,88,0.00,,,-99.99,,2013-05-31 05:12:00,
2013-05-30 21:22:00,48.0,44.0,-100.00,SW,235,9.0,12.0,88,0.00,,,-99.99,,2013-05-31 05:22:00,
2013-05-30 21:30:00,48.0,44.0,-100.00,SW,231,5.0,7.0,85,0.00,,,-99.99,,2013-05-31 05:30:00,
2013-05-30 21:52:00,48.0,44.0,-100.00,SW,231,5.0,7.0,85,0.00,,,-99.99,,2013-05-31 05:52:00,
2013-05-30 22:01:00,48.0,44.0,-100.00,SW,231,5.0,7.0,85,0.00,,,-99.99,,2013-05-31 06:01:00,
2013-05-30 22:12:00,48.0,44.0,-100.00,SW,231,5.0,7.0,85,0.00,,,-99.99,,2013-05-31 06:12:00,
2013-05-30 22:21:00,48.0,44.0,-100.00,SW,231,5.0,7.0,85,0.00,,,-99.99,,2013-05-31 06:21:00,
2013-05-30 22:30:00,47.0,44.0,-100.00,SW,235,7.0,9.0,87,0.00,,,-99.99,,2013-05-31 06:30:00,
2013-05-30 22:52:00,47.0,44.0,-100.00,SW,235,7.0,9.0,87,0.00,,,-99.99,,2013-05-31 06:52:00,
2013-05-30 23:02:00,47.0,44.0,-100.00,SW,235,7.0,9.0,87,0.00,,,-99.99,,2013-05-31 07:02:00,
2013-05-30 23:11:00,47.0,44.0,-100.00,SW,235,7.0,9.0,87,0.00,,,-99.99,,2013-05-31 07:11:00,
2013-05-30 23:21:00,47.0,44.0,-100.00,SW,235,7.0,9.0,87,0.00,,,-99.99,,2013-05-31 07:21:00,
2013-05-30 23:30:00,47.0,44.0,-100.00,WSW,249,7.0,10.0,90,0.00,,,-99.99,,2013-05-31 07:30:00,
2013-05-30 23:52:00,47.0,44.0,-100.00,WSW,249,7.0,10.0,90,0.00,,,-99.99,,2013-05-31 07:52:00,